sensor_id;sensor_type;location;lat;lon;timestamp;pressure;altitude;pressure_sealevel;temperature;humidity
57894;BME280;43710;47.460;19.034;2023-08-30T04:04:18;99387.31;;;19.47;96.60
57894;BME280;43710;47.460;19.034;2023-08-30T04:07:23;99387.31;;;19.47;96.60
57894;BME280;43710;47.460;19.034;2023-08-30T04:10:25;99395.81;;;19.22;100.00
57894;BME280;43710;47.460;19.034;2023-08-30T04:13:27;99397.38;;;19.23;100.00
57894;BME280;43710;47.460;19.034;2023-08-30T04:16:30;99399.31;;;19.23;93.44
57894;BME280;43710;47.460;19.034;2023-08-30T04:19:32;99392.28;;;19.18;97.37
57894;BME280;43710;47.460;19.034;2023-08-30T04:22:34;99391.78;;;19.13;100.00
57894;BME280;43710;47.460;19.034;2023-08-30T04:25:37;99404.31;;;18.98;97.87
57894;BME280;43710;47.460;19.034;2023-08-30T04:28:39;99416.59;;;19.11;93.51
57894;BME280;43710;47.460;19.034;2023-08-30T04:31:43;99419.44;;;19.18;90.20
57894;BME280;43710;47.460;19.034;2023-08-30T04:34:45;99421.44;;;19.21;93.43
57894;BME280;43710;47.460;19.034;2023-08-30T04:37:48;99431.47;;;19.17;96.60
57894;BME280;43710;47.460;19.034;2023-08-30T04:40:57;99428.75;;;19.17;100.00
57894;BME280;43710;47.460;19.034;2023-08-30T04:44:01;99428.16;;;19.28;96.40
57894;BME280;43710;47.460;19.034;2023-08-30T04:47:04;99429.47;;;19.14;100.00
57894;BME280;43710;47.460;19.034;2023-08-30T04:50:09;99422.59;;;19.20;94.16
57894;BME280;43710;47.460;19.034;2023-08-30T04:53:12;99417.62;;;19.26;100.00
57894;BME280;43710;47.460;19.034;2023-08-30T04:56:14;99413.00;;;19.07;100.00
57894;BME280;43710;47.460;19.034;2023-08-30T04:59:17;99410.44;;;19.14;100.00
57894;BME280;43710;47.460;19.034;2023-08-30T05:02:21;99417.31;;;19.08;97.88
57894;BME280;43710;47.460;19.034;2023-08-30T05:05:25;99420.22;;;19.19;100.00
57894;BME280;43710;47.460;19.034;2023-08-30T05:08:28;99423.22;;;19.14;100.00
57894;BME280;43710;47.460;19.034;2023-08-30T05:11:30;99423.84;;;19.27;100.00
57894;BME280;43710;47.460;19.034;2023-08-30T05:14:32;99424.41;;;19.36;93.12
57894;BME280;43710;47.460;19.034;2023-08-30T05:17:35;99415.41;;;19.32;99.16
57894;BME280;43710;47.460;19.034;2023-08-30T05:20:38;99421.69;;;19.36;100.00
57894;BME280;43710;47.460;19.034;2023-08-30T05:23:41;99419.28;;;19.54;100.00
57894;BME280;43710;47.460;19.034;2023-08-30T05:26:44;99427.25;;;19.66;92.21
57894;BME280;43710;47.460;19.034;2023-08-30T05:29:49;99433.12;;;19.68;88.92
57894;BME280;43710;47.460;19.034;2023-08-30T05:32:52;99439.88;;;19.78;95.91
57894;BME280;43710;47.460;19.034;2023-08-30T05:35:55;99443.72;;;19.77;86.18
57894;BME280;43710;47.460;19.034;2023-08-30T05:38:58;99446.09;;;19.78;84.48
57894;BME280;43710;47.460;19.034;2023-08-30T05:42:02;99448.38;;;19.76;100.00
57894;BME280;43710;47.460;19.034;2023-08-30T05:45:06;99446.94;;;19.82;92.93
57894;BME280;43710;47.460;19.034;2023-08-30T05:48:08;99452.00;;;19.84;85.71
57894;BME280;43710;47.460;19.034;2023-08-30T05:51:11;99444.63;;;19.84;87.28
57894;BME280;43710;47.460;19.034;2023-08-30T05:54:13;99444.16;;;19.79;85.11
57894;BME280;43710;47.460;19.034;2023-08-30T05:57:16;99444.16;;;19.79;85.16
57894;BME280;43710;47.460;19.034;2023-08-30T06:00:18;99445.19;;;19.93;89.05
57894;BME280;43710;47.460;19.034;2023-08-30T06:03:22;99432.34;;;20.21;91.06
57894;BME280;43710;47.460;19.034;2023-08-30T06:06:24;99430.88;;;20.27;88.83
57894;BME280;43710;47.460;19.034;2023-08-30T06:09:27;99432.62;;;20.42;90.31
57894;BME280;43710;47.460;19.034;2023-08-30T06:12:29;99446.28;;;20.46;86.87
57894;BME280;43710;47.460;19.034;2023-08-30T06:15:32;99448.66;;;20.47;79.93
57894;BME280;43710;47.460;19.034;2023-08-30T06:18:35;99458.78;;;20.50;85.47
57894;BME280;43710;47.460;19.034;2023-08-30T06:21:39;99462.84;;;20.60;82.73
57894;BME280;43710;47.460;19.034;2023-08-30T06:24:41;99458.69;;;20.70;88.53
57894;BME280;43710;47.460;19.034;2023-08-30T06:27:56;99466.56;;;20.78;90.19
57894;BME280;43710;47.460;19.034;2023-08-30T06:30:59;99462.34;;;20.84;85.04
57894;BME280;43710;47.460;19.034;2023-08-30T06:34:02;99466.59;;;20.82;80.08
57894;BME280;43710;47.460;19.034;2023-08-30T06:37:05;99460.78;;;20.83;83.22
57894;BME280;43710;47.460;19.034;2023-08-30T06:40:08;99468.31;;;20.94;88.21
57894;BME280;43710;47.460;19.034;2023-08-30T06:43:11;99467.78;;;21.18;80.20
57894;BME280;43710;47.460;19.034;2023-08-30T06:46:13;99456.09;;;21.18;78.75
57894;BME280;43710;47.460;19.034;2023-08-30T06:49:16;99452.63;;;21.21;84.07
57894;BME280;43710;47.460;19.034;2023-08-30T06:52:19;99451.00;;;21.12;80.55
57894;BME280;43710;47.460;19.034;2023-08-30T06:55:21;99444.31;;;21.06;85.87
57894;BME280;43710;47.460;19.034;2023-08-30T06:58:24;99455.13;;;20.99;76.80
57894;BME280;43710;47.460;19.034;2023-08-30T07:01:26;99454.69;;;20.94;77.19
57894;BME280;43710;47.460;19.034;2023-08-30T07:04:29;99454.22;;;20.88;79.52
57894;BME280;43710;47.460;19.034;2023-08-30T07:07:33;99460.53;;;20.96;76.50
57894;BME280;43710;47.460;19.034;2023-08-30T07:10:36;99456.78;;;21.07;88.82
57894;BME280;43710;47.460;19.034;2023-08-30T07:13:38;99462.41;;;21.25;87.85
57894;BME280;43710;47.460;19.034;2023-08-30T07:16:41;99452.37;;;21.33;77.19
57894;BME280;43710;47.460;19.034;2023-08-30T07:19:43;99456.00;;;21.07;76.59
57894;BME280;43710;47.460;19.034;2023-08-30T07:22:46;99458.81;;;21.18;77.69
57894;BME280;43710;47.460;19.034;2023-08-30T07:25:48;99459.97;;;21.13;81.44
57894;BME280;43710;47.460;19.034;2023-08-30T07:28:51;99472.97;;;21.30;82.71
57894;BME280;43710;47.460;19.034;2023-08-30T07:31:53;99468.78;;;21.37;79.55
57894;BME280;43710;47.460;19.034;2023-08-30T07:34:57;99472.41;;;21.14;76.37
57894;BME280;43710;47.460;19.034;2023-08-30T07:37:59;99476.34;;;20.83;78.56
57894;BME280;43710;47.460;19.034;2023-08-30T07:41:02;99481.38;;;20.81;80.97
57894;BME280;43710;47.460;19.034;2023-08-30T07:44:04;99485.63;;;20.78;81.33
57894;BME280;43710;47.460;19.034;2023-08-30T07:47:07;99486.03;;;20.80;82.56
57894;BME280;43710;47.460;19.034;2023-08-30T07:50:09;99488.38;;;20.82;83.59
57894;BME280;43710;47.460;19.034;2023-08-30T07:53:12;99492.59;;;20.76;82.54
57894;BME280;43710;47.460;19.034;2023-08-30T07:56:15;99487.53;;;20.74;81.23
57894;BME280;43710;47.460;19.034;2023-08-30T07:59:18;99494.53;;;20.75;82.14
57894;BME280;43710;47.460;19.034;2023-08-30T08:02:28;99502.94;;;20.63;81.66
57894;BME280;43710;47.460;19.034;2023-08-30T08:05:31;99498.37;;;20.71;84.13
57894;BME280;43710;47.460;19.034;2023-08-30T08:08:34;99496.44;;;20.71;82.74
57894;BME280;43710;47.460;19.034;2023-08-30T08:11:42;99506.22;;;20.76;81.65
57894;BME280;43710;47.460;19.034;2023-08-30T08:14:45;99508.00;;;20.64;82.28
57894;BME280;43710;47.460;19.034;2023-08-30T08:17:48;99510.78;;;20.68;83.71
57894;BME280;43710;47.460;19.034;2023-08-30T08:20:52;99518.91;;;20.64;81.94
57894;BME280;43710;47.460;19.034;2023-08-30T08:23:54;99510.81;;;20.72;83.34
57894;BME280;43710;47.460;19.034;2023-08-30T08:26:57;99512.53;;;20.83;82.32
57894;BME280;43710;47.460;19.034;2023-08-30T08:29:59;99506.22;;;20.76;80.64
57894;BME280;43710;47.460;19.034;2023-08-30T08:33:02;99505.03;;;20.73;80.42
57894;BME280;43710;47.460;19.034;2023-08-30T08:36:05;99502.50;;;20.91;82.72
57894;BME280;43710;47.460;19.034;2023-08-30T08:39:08;99517.97;;;21.14;85.34
57894;BME280;43710;47.460;19.034;2023-08-30T08:42:13;99514.41;;;21.09;79.03
57894;BME280;43710;47.460;19.034;2023-08-30T08:45:18;99509.44;;;21.19;86.21
57894;BME280;43710;47.460;19.034;2023-08-30T08:48:23;99514.53;;;21.20;80.27
57894;BME280;43710;47.460;19.034;2023-08-30T08:51:26;99516.09;;;21.21;80.88
57894;BME280;43710;47.460;19.034;2023-08-30T08:54:29;99513.44;;;21.28;79.85
57894;BME280;43710;47.460;19.034;2023-08-30T08:57:31;99527.06;;;21.28;78.05
57894;BME280;43710;47.460;19.034;2023-08-30T09:00:34;99524.62;;;21.16;80.10
57894;BME280;43710;47.460;19.034;2023-08-30T09:03:38;99521.47;;;21.14;78.56
57894;BME280;43710;47.460;19.034;2023-08-30T09:06:41;99523.25;;;21.33;85.04
57894;BME280;43710;47.460;19.034;2023-08-30T09:09:46;99524.50;;;21.39;80.41
57894;BME280;43710;47.460;19.034;2023-08-30T09:12:49;99528.56;;;21.56;81.91
57894;BME280;43710;47.460;19.034;2023-08-30T09:15:51;99525.91;;;21.63;82.17
57894;BME280;43710;47.460;19.034;2023-08-30T09:19:01;99532.94;;;21.64;82.39
57894;BME280;43710;47.460;19.034;2023-08-30T09:22:13;99541.69;;;21.43;77.96
57894;BME280;43710;47.460;19.034;2023-08-30T09:25:23;99551.72;;;21.35;80.97
57894;BME280;43710;47.460;19.034;2023-08-30T09:28:27;99548.66;;;21.41;76.75
57894;BME280;43710;47.460;19.034;2023-08-30T09:34:36;99546.88;;;21.25;76.55
57894;BME280;43710;47.460;19.034;2023-08-30T09:37:38;99553.03;;;21.19;78.00
57894;BME280;43710;47.460;19.034;2023-08-30T09:40:41;99554.38;;;21.32;78.46
57894;BME280;43710;47.460;19.034;2023-08-30T09:43:44;99546.34;;;21.43;76.87
57894;BME280;43710;47.460;19.034;2023-08-30T09:46:50;99556.09;;;21.44;77.96
57894;BME280;43710;47.460;19.034;2023-08-30T09:49:56;99553.91;;;21.56;76.61
57894;BME280;43710;47.460;19.034;2023-08-30T09:53:07;99563.19;;;21.52;77.03
57894;BME280;43710;47.460;19.034;2023-08-30T09:56:14;99558.75;;;21.74;79.91
57894;BME280;43710;47.460;19.034;2023-08-30T09:59:17;99568.63;;;21.52;75.74
57894;BME280;43710;47.460;19.034;2023-08-30T10:02:20;99569.38;;;21.49;75.70
57894;BME280;43710;47.460;19.034;2023-08-30T10:05:23;99573.97;;;21.41;76.76
57894;BME280;43710;47.460;19.034;2023-08-30T10:08:25;99571.63;;;21.40;76.35
57894;BME280;43710;47.460;19.034;2023-08-30T10:11:34;99571.59;;;21.36;77.49
57894;BME280;43710;47.460;19.034;2023-08-30T10:14:38;99573.72;;;21.53;77.00
57894;BME280;43710;47.460;19.034;2023-08-30T10:17:44;99564.53;;;21.69;80.76
57894;BME280;43710;47.460;19.034;2023-08-30T10:20:47;99564.94;;;21.71;78.81
57894;BME280;43710;47.460;19.034;2023-08-30T10:23:51;99568.91;;;21.40;75.72
57894;BME280;43710;47.460;19.034;2023-08-30T10:26:58;99570.94;;;21.46;77.81
57894;BME280;43710;47.460;19.034;2023-08-30T10:30:05;99570.59;;;21.51;76.60
57894;BME280;43710;47.460;19.034;2023-08-30T10:33:12;99563.94;;;21.49;76.67
57894;BME280;43710;47.460;19.034;2023-08-30T10:36:23;99566.22;;;21.43;75.80
57894;BME280;43710;47.460;19.034;2023-08-30T10:39:39;99566.22;;;21.43;75.44
57894;BME280;43710;47.460;19.034;2023-08-30T10:42:42;99561.69;;;21.58;76.97
57894;BME280;43710;47.460;19.034;2023-08-30T10:45:44;99560.16;;;21.61;76.15
57894;BME280;43710;47.460;19.034;2023-08-30T10:48:47;99559.44;;;21.67;73.65
57894;BME280;43710;47.460;19.034;2023-08-30T10:51:57;99571.12;;;21.68;74.27
57894;BME280;43710;47.460;19.034;2023-08-30T10:55:11;99562.94;;;21.64;74.29
57894;BME280;43710;47.460;19.034;2023-08-30T10:58:14;99560.22;;;21.68;72.27
57894;BME280;43710;47.460;19.034;2023-08-30T11:01:17;99557.22;;;21.76;73.48
57894;BME280;43710;47.460;19.034;2023-08-30T11:04:21;99557.66;;;21.82;73.37
57894;BME280;43710;47.460;19.034;2023-08-30T11:07:25;99553.69;;;21.76;74.90
57894;BME280;43710;47.460;19.034;2023-08-30T11:10:27;99552.16;;;21.78;71.03
57894;BME280;43710;47.460;19.034;2023-08-30T11:13:30;99549.53;;;21.89;74.96
57894;BME280;43710;47.460;19.034;2023-08-30T11:16:33;99547.34;;;22.05;74.67
57894;BME280;43710;47.460;19.034;2023-08-30T11:19:36;99543.84;;;22.09;72.71
57894;BME280;43710;47.460;19.034;2023-08-30T11:22:41;99545.50;;;22.17;73.81
57894;BME280;43710;47.460;19.034;2023-08-30T11:25:50;99544.34;;;22.21;69.36
57894;BME280;43710;47.460;19.034;2023-08-30T11:28:52;99542.44;;;22.22;68.47
57894;BME280;43710;47.460;19.034;2023-08-30T11:31:55;99542.47;;;22.29;74.07
57894;BME280;43710;47.460;19.034;2023-08-30T11:34:57;99546.28;;;22.21;70.67
57894;BME280;43710;47.460;19.034;2023-08-30T11:38:03;99552.16;;;22.23;71.30
57894;BME280;43710;47.460;19.034;2023-08-30T11:41:06;99554.50;;;22.24;69.45
57894;BME280;43710;47.460;19.034;2023-08-30T11:44:09;99547.53;;;22.31;68.52
57894;BME280;43710;47.460;19.034;2023-08-30T11:47:18;99546.53;;;22.53;73.64
57894;BME280;43710;47.460;19.034;2023-08-30T11:50:21;99543.81;;;22.57;73.68
57894;BME280;43710;47.460;19.034;2023-08-30T11:53:27;99545.38;;;22.58;69.82
57894;BME280;43710;47.460;19.034;2023-08-30T11:56:30;99538.78;;;22.66;71.12
57894;BME280;43710;47.460;19.034;2023-08-30T11:59:35;99533.28;;;22.59;68.71
57894;BME280;43710;47.460;19.034;2023-08-30T12:02:41;99533.28;;;22.55;71.34
57894;BME280;43710;47.460;19.034;2023-08-30T12:05:45;99534.88;;;22.63;73.26
57894;BME280;43710;47.460;19.034;2023-08-30T12:08:48;99528.22;;;22.61;71.19
57894;BME280;43710;47.460;19.034;2023-08-30T12:11:50;99532.94;;;22.67;73.44
57894;BME280;43710;47.460;19.034;2023-08-30T12:14:56;99542.34;;;22.73;73.58
57894;BME280;43710;47.460;19.034;2023-08-30T12:18:06;99526.03;;;22.91;74.62
57894;BME280;43710;47.460;19.034;2023-08-30T12:21:08;99529.97;;;22.97;71.15
57894;BME280;43710;47.460;19.034;2023-08-30T12:24:11;99528.44;;;23.04;71.76
57894;BME280;43710;47.460;19.034;2023-08-30T12:27:13;99523.06;;;23.18;74.23
57894;BME280;43710;47.460;19.034;2023-08-30T12:30:17;99521.06;;;23.11;71.40
57894;BME280;43710;47.460;19.034;2023-08-30T12:33:19;99522.25;;;23.21;71.55
57894;BME280;43710;47.460;19.034;2023-08-30T12:36:22;99522.25;;;23.21;70.54
57894;BME280;43710;47.460;19.034;2023-08-30T12:39:24;99523.06;;;23.29;72.00
57894;BME280;43710;47.460;19.034;2023-08-30T12:42:27;99523.38;;;23.02;68.63
57894;BME280;43710;47.460;19.034;2023-08-30T12:45:29;99529.91;;;22.87;71.20
57894;BME280;43710;47.460;19.034;2023-08-30T12:48:32;99522.88;;;22.82;74.14
57894;BME280;43710;47.460;19.034;2023-08-30T12:51:34;99525.19;;;22.77;73.65
57894;BME280;43710;47.460;19.034;2023-08-30T12:54:37;99522.03;;;22.74;72.63
57894;BME280;43710;47.460;19.034;2023-08-30T12:57:39;99512.97;;;22.52;72.85
57894;BME280;43710;47.460;19.034;2023-08-30T13:00:41;99513.28;;;22.40;72.94
57894;BME280;43710;47.460;19.034;2023-08-30T13:03:44;99514.81;;;22.38;75.40
57894;BME280;43710;47.460;19.034;2023-08-30T13:06:46;99515.59;;;22.38;71.52
57894;BME280;43710;47.460;19.034;2023-08-30T13:09:48;99506.53;;;22.23;73.58
57894;BME280;43710;47.460;19.034;2023-08-30T13:12:51;99515.94;;;22.26;72.86
57894;BME280;43710;47.460;19.034;2023-08-30T13:15:53;99506.19;;;22.28;74.31
57894;BME280;43710;47.460;19.034;2023-08-30T13:18:56;99505.34;;;22.21;72.28
57894;BME280;43710;47.460;19.034;2023-08-30T13:21:58;99510.41;;;22.15;72.20
57894;BME280;43710;47.460;19.034;2023-08-30T13:25:01;99513.94;;;22.23;73.24
57894;BME280;43710;47.460;19.034;2023-08-30T13:28:05;99510.81;;;22.21;72.74
57894;BME280;43710;47.460;19.034;2023-08-30T13:31:07;99521.00;;;22.27;72.45
57894;BME280;43710;47.460;19.034;2023-08-30T13:34:10;99524.47;;;22.21;72.17
57894;BME280;43710;47.460;19.034;2023-08-30T13:37:13;99521.69;;;22.17;73.62
57894;BME280;43710;47.460;19.034;2023-08-30T13:40:15;99517.03;;;22.21;72.50
57894;BME280;43710;47.460;19.034;2023-08-30T13:43:19;99525.91;;;22.11;70.75
57894;BME280;43710;47.460;19.034;2023-08-30T13:46:21;99526.66;;;22.08;70.24
57894;BME280;43710;47.460;19.034;2023-08-30T13:49:24;99526.66;;;22.08;72.25
57894;BME280;43710;47.460;19.034;2023-08-30T13:52:26;99530.63;;;22.14;71.79
57894;BME280;43710;47.460;19.034;2023-08-30T13:55:29;99529.56;;;22.22;73.17
57894;BME280;43710;47.460;19.034;2023-08-30T13:58:33;99525.25;;;22.25;69.63
57894;BME280;43710;47.460;19.034;2023-08-30T14:01:35;99527.63;;;22.26;71.43
57894;BME280;43710;47.460;19.034;2023-08-30T14:04:38;99527.94;;;22.18;69.53
57894;BME280;43710;47.460;19.034;2023-08-30T14:07:40;99530.34;;;22.23;70.81
57894;BME280;43710;47.460;19.034;2023-08-30T14:10:43;99542.75;;;22.17;70.03
57894;BME280;43710;47.460;19.034;2023-08-30T14:13:45;99537.31;;;22.17;69.91
57894;BME280;43710;47.460;19.034;2023-08-30T14:16:48;99542.72;;;22.13;70.10
57894;BME280;43710;47.460;19.034;2023-08-30T14:19:50;99530.50;;;22.00;70.51
57894;BME280;43710;47.460;19.034;2023-08-30T14:22:53;99537.16;;;21.99;71.19
57894;BME280;43710;47.460;19.034;2023-08-30T14:26:06;99536.66;;;21.90;71.57
57894;BME280;43710;47.460;19.034;2023-08-30T14:29:12;99537.00;;;21.85;72.37
57894;BME280;43710;47.460;19.034;2023-08-30T14:32:14;99540.59;;;21.92;72.23
57894;BME280;43710;47.460;19.034;2023-08-30T14:35:17;99549.47;;;21.82;70.79
57894;BME280;43710;47.460;19.034;2023-08-30T14:38:19;99546.34;;;21.84;71.55
57894;BME280;43710;47.460;19.034;2023-08-30T14:41:22;99557.53;;;21.71;72.30
57894;BME280;43710;47.460;19.034;2023-08-30T14:44:24;99557.06;;;21.62;73.29
57894;BME280;43710;47.460;19.034;2023-08-30T14:47:29;99564.06;;;21.60;72.71
57894;BME280;43710;47.460;19.034;2023-08-30T14:50:31;99562.84;;;21.57;73.22
57894;BME280;43710;47.460;19.034;2023-08-30T14:53:34;99565.47;;;21.46;72.35
57894;BME280;43710;47.460;19.034;2023-08-30T14:56:37;99569.44;;;21.52;72.49
